createdAt,value
2022-08-05T04:01:42.649Z,22.85
2022-08-05T04:04:15.189Z,22.85
2022-08-05T04:06:51.370Z,22.87
2022-08-05T04:09:26.150Z,22.85
2022-08-05T04:11:54.125Z,22.86
2022-08-05T04:14:34.202Z,22.85
2022-08-05T04:17:02.985Z,22.86
2022-08-05T04:19:30.082Z,22.83
2022-08-05T04:22:09.158Z,22.87
2022-08-05T04:24:52.469Z,22.85
2022-08-05T04:27:19.291Z,22.80
2022-08-05T04:29:59.954Z,22.80
2022-08-05T04:32:31.254Z,22.81
2022-08-05T04:34:59.897Z,22.81
2022-08-05T04:38:01.191Z,22.79
2022-08-05T04:40:13.856Z,22.74
2022-08-05T04:42:45.848Z,22.73
2022-08-05T04:45:14.188Z,22.72
2022-08-05T04:48:10.291Z,22.71
2022-08-05T04:51:02.018Z,22.71
2022-08-05T04:53:33.535Z,22.72
2022-08-05T04:56:32.659Z,22.69
2022-08-05T04:58:48.542Z,22.69
2022-08-05T05:01:15.066Z,22.69
2022-08-05T05:04:00.551Z,22.65
2022-08-05T05:06:39.126Z,22.66
2022-08-05T05:09:07.607Z,22.65
2022-08-05T05:11:42.122Z,22.65
2022-08-05T05:14:28.180Z,22.64
2022-08-05T05:17:01.203Z,22.59
2022-08-05T05:19:37.060Z,22.59
2022-08-05T05:22:23.614Z,22.57
2022-08-05T05:24:57.011Z,22.53
2022-08-05T05:27:44.838Z,22.52
2022-08-05T05:30:29.433Z,22.48
2022-08-05T05:33:00.866Z,22.48
2022-08-05T05:35:34.177Z,22.46
2022-08-05T05:38:08.947Z,22.44
2022-08-05T05:40:38.329Z,22.44
2022-08-05T05:43:10.301Z,22.43
2022-08-05T05:45:36.897Z,22.36
2022-08-05T05:48:16.142Z,22.31
2022-08-05T05:50:44.341Z,22.29
2022-08-05T05:53:22.508Z,22.32
2022-08-05T05:55:52.387Z,22.26
2022-08-05T05:58:30.328Z,22.23
2022-08-05T06:01:02.232Z,22.23
2022-08-05T06:04:00.584Z,22.19
2022-08-05T06:06:28.102Z,22.16
2022-08-05T06:08:58.223Z,22.09
2022-08-05T06:11:24.832Z,22.10
2022-08-05T06:13:54.039Z,22.09
2022-08-05T06:16:30.494Z,22.06
2022-08-05T06:19:01.809Z,22.10
2022-08-05T06:21:37.070Z,22.06
2022-08-05T06:24:09.998Z,22.06
2022-08-05T06:26:51.518Z,22.05
2022-08-05T06:29:42.982Z,22.07
2022-08-05T06:32:21.207Z,22.04
2022-08-05T06:34:53.574Z,22.03
2022-08-05T06:37:52.249Z,21.98
2022-08-05T06:40:10.496Z,21.97
2022-08-05T06:42:39.693Z,21.98
2022-08-05T06:45:09.380Z,22.00
2022-08-05T06:48:36.410Z,21.99
2022-08-05T06:50:23.723Z,22.01
2022-08-05T06:52:58.847Z,22.00
2022-08-05T06:55:37.036Z,21.99
2022-08-05T06:58:30.098Z,21.99
2022-08-05T07:00:50.900Z,21.96
2022-08-05T07:03:18.173Z,21.91
2022-08-05T07:05:46.384Z,21.78
2022-08-05T07:08:13.189Z,21.85
2022-08-05T07:10:52.454Z,21.85
2022-08-05T07:13:58.457Z,21.87
2022-08-05T07:17:57.285Z,21.91
2022-08-05T07:22:28.832Z,21.79
2022-08-05T07:24:58.548Z,21.79
2022-08-05T07:27:25.432Z,21.84
2022-08-05T07:30:28.015Z,21.75
2022-08-05T07:32:43.317Z,21.82
2022-08-05T07:36:03.642Z,21.81
2022-08-05T07:37:58.798Z,21.84
2022-08-05T07:40:32.569Z,21.85
2022-08-05T07:42:59.749Z,21.85
2022-08-05T07:45:57.479Z,21.81
2022-08-05T07:49:00.801Z,21.82
2022-08-05T07:51:08.617Z,21.83
2022-08-05T07:53:52.269Z,21.85
2022-08-05T07:56:38.981Z,21.87
2022-08-05T07:59:08.535Z,21.88
2022-08-05T08:01:35.416Z,21.91
2022-08-05T08:04:08.371Z,21.92
2022-08-05T08:06:34.828Z,21.93
2022-08-05T08:09:01.303Z,21.95
2022-08-05T08:11:54.262Z,21.97
2022-08-05T08:14:18.410Z,21.97
2022-08-05T08:16:51.080Z,21.97
2022-08-05T08:20:22.990Z,21.98
2022-08-05T08:22:09.016Z,21.98
2022-08-05T08:24:51.008Z,21.98
2022-08-05T08:27:18.738Z,21.98
2022-08-05T08:30:06.136Z,21.97
2022-08-05T08:32:34.676Z,21.98
2022-08-05T08:35:07.562Z,21.98
2022-08-05T08:37:45.130Z,21.93
2022-08-05T08:40:12.487Z,21.95
2022-08-05T08:42:50.466Z,21.97
2022-08-05T08:45:26.762Z,21.95
2022-08-05T08:48:10.519Z,21.94
2022-08-05T08:51:03.225Z,21.90
2022-08-05T08:53:37.010Z,21.88
2022-08-05T08:56:06.256Z,21.91
2022-08-05T08:58:43.839Z,21.88
2022-08-05T09:01:16.010Z,21.88
2022-08-05T09:03:46.677Z,21.88
2022-08-05T09:06:18.479Z,21.89
2022-08-05T09:08:46.689Z,21.85
2022-08-05T09:11:14.929Z,21.88
2022-08-05T09:14:10.152Z,21.89
2022-08-05T09:16:29.747Z,21.87
2022-08-05T09:18:56.376Z,21.87
2022-08-05T09:22:17.749Z,21.88
2022-08-05T09:24:15.628Z,21.85
2022-08-05T09:26:46.274Z,21.84
2022-08-05T09:29:18.748Z,21.82
2022-08-05T09:32:41.741Z,21.80
2022-08-05T09:34:58.308Z,21.81
2022-08-05T09:38:12.689Z,21.82
2022-08-05T09:40:53.727Z,21.78
2022-08-05T09:43:40.724Z,21.77
2022-08-05T09:46:28.205Z,21.76
2022-08-05T09:49:07.707Z,21.77
2022-08-05T09:51:43.838Z,21.74
2022-08-05T09:54:15.539Z,21.71
2022-08-05T09:56:51.710Z,21.74
2022-08-05T09:59:23.976Z,21.73
2022-08-05T10:01:57.896Z,21.72
2022-08-05T10:04:35.806Z,21.73
2022-08-05T10:07:20.366Z,21.77
2022-08-05T10:10:13.991Z,21.77
2022-08-05T10:12:50.441Z,21.75
2022-08-05T10:15:28.152Z,21.69
2022-08-05T10:18:14.024Z,21.67
2022-08-05T10:20:49.612Z,21.63
2022-08-05T10:23:55.418Z,21.62
2022-08-05T10:26:15.037Z,21.62
2022-08-05T10:28:44.078Z,21.66
2022-08-05T10:32:50.751Z,21.64
2022-08-05T10:34:01.914Z,21.64
2022-08-05T10:36:29.570Z,21.66
2022-08-05T10:39:10.074Z,21.68
2022-08-05T10:42:11.355Z,21.62
2022-08-05T10:44:39.179Z,21.66
2022-08-05T10:47:26.805Z,21.64
2022-08-05T10:50:32.342Z,21.73
2022-08-05T10:53:01.021Z,21.73
2022-08-05T10:55:28.561Z,21.73
2022-08-05T10:58:11.326Z,21.76
2022-08-05T11:00:42.187Z,21.78
2022-08-05T11:03:23.023Z,21.77
2022-08-05T11:06:04.771Z,21.79
2022-08-05T11:08:37.311Z,21.80
2022-08-05T11:11:44.573Z,21.80
2022-08-05T11:17:57.922Z,21.80
2022-08-05T11:20:41.590Z,21.81
2022-08-05T11:24:04.857Z,21.83
2022-08-05T11:26:32.510Z,21.81
2022-08-05T11:29:11.449Z,21.83
2022-08-05T11:31:58.825Z,21.84
2022-08-05T11:34:51.998Z,21.79
2022-08-05T11:38:30.406Z,21.76
2022-08-05T11:41:03.444Z,21.70
2022-08-05T11:44:06.366Z,21.70
2022-08-05T11:46:37.846Z,21.61
2022-08-05T11:49:24.277Z,21.62
2022-08-05T11:51:53.324Z,21.60
2022-08-05T11:54:33.706Z,21.65
2022-08-05T11:57:08.520Z,21.66
2022-08-05T11:59:50.381Z,21.65
2022-08-05T12:02:29.947Z,21.65
2022-08-05T12:05:00.772Z,21.67
2022-08-05T12:08:09.138Z,21.68
2022-08-05T12:10:22.705Z,21.70
2022-08-05T12:12:58.266Z,21.67
2022-08-05T12:15:35.783Z,21.66
2022-08-05T12:18:10.491Z,21.64
2022-08-05T12:20:38.507Z,21.65
2022-08-05T12:23:12.256Z,21.66
2022-08-05T12:25:56.623Z,21.60
2022-08-05T12:28:37.112Z,21.63
2022-08-05T12:31:04.965Z,21.60
2022-08-05T12:33:36.518Z,21.65
2022-08-05T12:36:08.600Z,21.63
2022-08-05T12:38:40.253Z,21.63
2022-08-05T12:41:12.832Z,21.67
2022-08-05T12:43:53.609Z,21.63
2022-08-05T12:46:28.064Z,21.66
2022-08-05T12:49:12.910Z,21.64
2022-08-05T12:52:11.074Z,21.66
2022-08-05T12:54:49.667Z,21.69
2022-08-05T12:57:17.119Z,21.72
2022-08-05T13:01:56.754Z,21.72
2022-08-05T13:02:36.170Z,21.75
2022-08-05T13:05:06.579Z,21.77
2022-08-05T13:07:59.241Z,21.79
2022-08-05T13:10:20.478Z,21.78
2022-08-05T13:12:50.962Z,21.78
2022-08-05T13:15:42.076Z,21.81
2022-08-05T13:18:19.454Z,21.79
2022-08-05T13:20:47.206Z,21.79
2022-08-05T13:23:16.367Z,21.82
2022-08-05T13:25:51.873Z,21.81
2022-08-05T13:28:25.753Z,21.81
2022-08-05T13:30:53.478Z,21.77
2022-08-05T13:34:23.398Z,21.80
2022-08-05T13:36:09.201Z,21.80
2022-08-05T13:38:42.416Z,21.83
2022-08-05T13:41:10.728Z,21.82
2022-08-05T13:43:45.651Z,21.81
2022-08-05T13:46:50.744Z,21.83
2022-08-05T13:49:11.965Z,21.83
2022-08-05T13:51:40.940Z,21.87
2022-08-05T13:54:11.590Z,21.91
2022-08-05T13:56:39.745Z,21.94
2022-08-05T13:59:19.692Z,21.90
2022-08-05T14:01:59.151Z,21.97
2022-08-05T14:04:49.803Z,21.98
2022-08-05T14:07:26.204Z,22.00
2022-08-05T14:10:32.027Z,22.00
2022-08-05T14:12:59.362Z,22.02
2022-08-05T14:16:08.067Z,22.06
2022-08-05T14:18:18.418Z,22.02
2022-08-05T14:20:54.468Z,22.07
2022-08-05T14:23:25.456Z,22.09
2022-08-05T14:25:58.616Z,22.09
2022-08-05T14:28:27.491Z,22.09
2022-08-05T14:30:56.062Z,22.05
2022-08-05T14:33:24.118Z,22.14
2022-08-05T14:35:54.024Z,22.14
2022-08-05T14:38:32.655Z,22.14
2022-08-05T14:41:06.065Z,22.19
2022-08-05T14:43:58.755Z,22.21
2022-08-05T14:46:28.395Z,22.20
2022-08-05T14:48:56.740Z,22.10
2022-08-05T14:51:24.052Z,22.17
2022-08-05T14:54:26.370Z,22.20
2022-08-05T14:56:37.983Z,22.22
2022-08-05T14:59:11.351Z,22.24
2022-08-05T15:01:48.987Z,22.30
2022-08-05T15:04:19.466Z,22.33
2022-08-05T15:06:49.438Z,22.34
2022-08-05T15:09:51.012Z,22.34
2022-08-05T15:12:04.966Z,22.40
2022-08-05T15:14:35.773Z,22.42
2022-08-05T15:17:10.050Z,22.46
2022-08-05T15:19:55.903Z,22.49
2022-08-05T15:22:27.403Z,22.51
2022-08-05T15:24:56.162Z,22.53
2022-08-05T15:27:25.806Z,22.60
2022-08-05T15:29:54.268Z,22.62
2022-08-05T15:32:28.684Z,22.64
2022-08-05T15:34:56.683Z,22.64
2022-08-05T15:38:32.282Z,22.71
2022-08-05T15:40:58.968Z,22.73
2022-08-05T15:43:09.399Z,22.75
2022-08-05T15:45:45.674Z,22.76
2022-08-05T15:48:14.518Z,22.81
2022-08-05T15:50:43.826Z,22.85
2022-08-05T15:53:13.182Z,22.87
2022-08-05T15:56:04.021Z,22.85
2022-08-05T15:58:30.117Z,22.83
2022-08-05T16:01:18.380Z,22.87
2022-08-05T16:03:48.755Z,22.92
2022-08-05T16:06:20.262Z,22.89
2022-08-05T16:08:48.303Z,22.95
2022-08-05T16:11:18.168Z,22.97
2022-08-05T16:13:48.376Z,23.00
2022-08-05T16:16:15.433Z,23.03
2022-08-05T16:18:52.419Z,23.04
2022-08-05T16:21:20.683Z,23.11
2022-08-05T16:24:12.570Z,23.12
2022-08-05T16:26:58.130Z,23.15
2022-08-05T16:29:26.515Z,23.15
2022-08-05T16:31:57.111Z,23.19
2022-08-05T16:34:25.499Z,23.22
2022-08-05T16:36:53.342Z,23.24
2022-08-05T16:39:20.773Z,23.27
2022-08-05T16:42:13.901Z,23.30
2022-08-05T16:44:34.085Z,23.28
2022-08-05T16:47:00.615Z,23.29
2022-08-05T16:49:27.031Z,23.30
2022-08-05T16:51:57.001Z,23.23
2022-08-05T16:54:28.886Z,23.25
2022-08-05T16:56:58.616Z,23.20
2022-08-05T16:59:25.141Z,23.18
2022-08-05T17:01:55.874Z,23.21
2022-08-05T17:04:27.636Z,23.18
2022-08-05T17:06:56.881Z,23.14
2022-08-05T17:09:28.158Z,23.10
2022-08-05T17:11:59.941Z,22.99
2022-08-05T17:14:37.587Z,23.03
2022-08-05T17:17:06.659Z,23.02
2022-08-05T17:19:43.817Z,22.96
2022-08-05T17:22:18.036Z,22.99
2022-08-05T17:24:58.118Z,22.99
2022-08-05T17:27:33.774Z,22.86
2022-08-05T17:30:02.438Z,22.86
2022-08-05T17:32:29.629Z,22.86
2022-08-05T17:34:58.269Z,22.88
2022-08-05T17:37:39.567Z,22.84
2022-08-05T17:40:12.339Z,22.77
2022-08-05T17:42:41.570Z,22.84
2022-08-05T17:45:20.585Z,22.83
2022-08-05T17:47:53.578Z,22.84
2022-08-05T17:50:28.533Z,22.86
2022-08-05T17:52:58.989Z,22.85
2022-08-05T17:55:27.297Z,22.88
2022-08-05T17:58:01.993Z,22.78
2022-08-05T18:00:28.575Z,22.83
2022-08-05T18:02:56.132Z,22.85
2022-08-05T18:05:22.774Z,22.83
2022-08-05T18:07:49.535Z,22.76
2022-08-05T18:10:21.150Z,22.75
2022-08-05T18:12:48.998Z,22.72
2022-08-05T18:15:15.455Z,22.68
2022-08-05T18:18:01.459Z,22.68
2022-08-05T18:20:31.514Z,22.63
2022-08-05T18:23:00.759Z,22.52
2022-08-05T18:25:39.047Z,22.47
2022-08-05T18:28:06.903Z,22.43
2022-08-05T18:30:34.315Z,22.35
2022-08-05T18:33:01.522Z,22.28
2022-08-05T18:36:01.172Z,22.27
2022-08-05T18:38:19.397Z,22.24
2022-08-05T18:41:56.809Z,22.16
2022-08-05T18:43:42.723Z,22.10
2022-08-05T18:46:10.071Z,22.01
2022-08-05T18:48:41.671Z,21.98
2022-08-05T18:52:04.099Z,21.92
2022-08-05T18:54:14.616Z,21.82
2022-08-05T18:56:41.863Z,21.76
2022-08-05T18:59:43.382Z,21.66
2022-08-05T19:02:04.867Z,21.52
2022-08-05T19:05:02.337Z,21.49
2022-08-05T19:07:25.104Z,21.48
2022-08-05T19:09:58.841Z,21.43
2022-08-05T19:12:25.563Z,21.39
2022-08-05T19:15:00.050Z,21.35
2022-08-05T19:17:58.275Z,21.30
2022-08-05T19:20:15.693Z,21.27
2022-08-05T19:22:44.451Z,21.26
2022-08-05T19:25:21.579Z,21.20
2022-08-05T19:27:56.751Z,21.17
2022-08-05T19:30:23.186Z,21.14
2022-08-05T19:32:50.469Z,21.12
2022-08-05T19:35:16.942Z,21.09
2022-08-05T19:38:05.991Z,21.03
2022-08-05T19:40:34.682Z,20.96
2022-08-05T19:43:05.340Z,20.94
2022-08-05T19:45:36.944Z,20.92
2022-08-05T19:48:04.442Z,20.90
2022-08-05T19:50:32.095Z,20.85
2022-08-05T19:52:58.547Z,20.82
2022-08-05T19:56:15.640Z,20.77
2022-08-05T19:58:28.409Z,20.73
2022-08-05T20:00:56.271Z,20.70
2022-08-05T20:03:22.829Z,20.69
2022-08-05T20:05:56.639Z,20.63
2022-08-05T20:08:24.361Z,20.58
2022-08-05T20:10:51.328Z,20.56
2022-08-05T20:13:25.880Z,20.51
2022-08-05T20:16:06.187Z,20.48
2022-08-05T20:18:36.168Z,20.45
2022-08-05T20:21:05.114Z,20.41
2022-08-05T20:23:39.818Z,20.40
2022-08-05T20:26:19.913Z,20.34
2022-08-05T20:28:48.595Z,20.33
2022-08-05T20:31:16.719Z,20.28
2022-08-05T20:33:44.464Z,20.27
2022-08-05T20:36:11.571Z,20.25
2022-08-05T20:38:53.138Z,20.21
2022-08-05T20:41:27.066Z,20.15
2022-08-05T20:44:18.520Z,20.11
2022-08-05T20:46:54.911Z,20.10
2022-08-05T20:49:24.323Z,20.06
2022-08-05T20:51:53.451Z,20.01
2022-08-05T20:54:20.332Z,20.00
2022-08-05T20:56:47.361Z,19.99
2022-08-05T20:59:26.225Z,19.95
2022-08-05T21:01:57.234Z,19.93
2022-08-05T21:04:26.936Z,19.88
2022-08-05T21:06:53.823Z,19.85
2022-08-05T21:09:20.303Z,19.84
2022-08-05T21:12:09.226Z,19.81
2022-08-05T21:14:35.084Z,19.71
2022-08-05T21:17:05.213Z,19.72
2022-08-05T21:19:47.554Z,19.72
2022-08-05T21:22:18.687Z,19.65
2022-08-05T21:24:51.508Z,19.64
2022-08-05T21:27:25.402Z,19.62
2022-08-05T21:29:56.439Z,19.57
2022-08-05T21:32:27.851Z,19.49
2022-08-05T21:35:17.849Z,19.50
2022-08-05T21:37:47.131Z,19.44
2022-08-05T21:40:19.303Z,19.45
2022-08-05T21:42:47.208Z,19.44
2022-08-05T21:45:24.258Z,19.38
2022-08-05T21:47:57.231Z,19.38
2022-08-05T21:50:26.485Z,19.35
2022-08-05T21:52:59.128Z,19.32
2022-08-05T21:55:42.849Z,19.23
2022-08-05T21:58:19.531Z,19.23
2022-08-05T22:00:51.352Z,19.20
2022-08-05T22:03:18.165Z,19.17
2022-08-05T22:05:52.831Z,19.17
2022-08-05T22:08:24.054Z,19.12
2022-08-05T22:10:53.349Z,19.12
2022-08-05T22:14:34.175Z,19.08
2022-08-05T22:16:15.701Z,19.02
2022-08-05T22:18:53.038Z,19.00
2022-08-05T22:21:19.942Z,18.97
2022-08-05T22:24:09.093Z,18.96
2022-08-05T22:26:58.313Z,18.93
2022-08-05T22:29:26.522Z,18.88
2022-08-05T22:31:59.745Z,18.84
2022-08-05T22:34:30.079Z,18.84
2022-08-05T22:36:58.508Z,18.83
2022-08-05T22:39:29.787Z,18.80
2022-08-05T22:42:10.421Z,18.73
2022-08-05T22:44:39.681Z,18.75
2022-08-05T22:47:06.926Z,18.71
2022-08-05T22:50:17.689Z,18.69
2022-08-05T22:52:30.386Z,18.67
2022-08-05T22:55:01.037Z,18.63
2022-08-05T22:57:27.539Z,18.61
2022-08-05T23:00:05.157Z,18.61
2022-08-05T23:02:34.589Z,18.53
2022-08-05T23:05:07.194Z,18.55
2022-08-05T23:07:44.795Z,18.52
2022-08-05T23:10:12.618Z,18.49
2022-08-05T23:12:39.214Z,18.47
2022-08-05T23:15:09.083Z,18.46
2022-08-05T23:17:59.767Z,18.46
2022-08-05T23:20:24.342Z,18.44
2022-08-05T23:22:55.905Z,18.39
2022-08-05T23:25:51.408Z,18.39
2022-08-05T23:28:10.384Z,18.35
2022-08-05T23:30:40.526Z,18.34
2022-08-05T23:33:22.077Z,18.33
2022-08-05T23:35:56.150Z,18.30
2022-08-05T23:38:24.180Z,18.27
2022-08-05T23:40:52.755Z,18.28
2022-08-05T23:43:25.369Z,18.26
2022-08-05T23:46:21.381Z,18.23
2022-08-05T23:49:01.051Z,18.20
2022-08-05T23:51:52.548Z,18.19
2022-08-05T23:54:26.627Z,18.16
2022-08-05T23:57:04.083Z,18.15
